Stations météo

réclame
Mon MeteoGroup
Beitem, Belgique (6414): Température de l'air & dewpoint: 18.08.2019 00:00:00 - 24.08.2019 00:00:00 (CEST)Beitem, Belgique (6414): Vitesse du vent & gusts: 18.08.2019 00:00:00 - 24.08.2019 00:00:00 (CEST)Beitem, Belgique (6414): Direction du vent: 18.08.2019 00:00:00 - 24.08.2019 00:00:00 (CEST)Beitem, Belgique (6414): reduced air pressure: 18.08.2019 00:00:00 - 24.08.2019 00:00:00 (CEST)Beitem, Belgique (6414): Ensoleillement: 18.08.2019 00:00:00 - 24.08.2019 00:00:00 (CEST)Beitem, Belgique (6414): Quantités de précipitations: 18.08.2019 00:00:00 - 24.08.2019 00:00:00 (CEST)
Date & Time tt [°C] td [°C] ff [km/h] ff [knt] fx [km/h] fx [knt] dd ppp [hPa] sd [min] rr [mm]
24.08.2019 00:00:00 16,7 14,0 5 3 9 5 NE 1022,9 0 0,0
23.08.2019 23:00:00 17,8 14,3 6 4 11 6 NE 1022,7 0 0,0
23.08.2019 22:00:00 19,9 14,2 9 5 14 7 NE 1023,0 0 0,0
23.08.2019 21:00:00 20,6 13,8 4 2 11 6 ENE 1022,8 37 0,0
23.08.2019 20:00:00 24,5 12,6 7 4 14 8 E 1022,7 60 0,0
23.08.2019 19:00:00 25,8 11,1 8 4 14 8 E 1022,8 60 0,0
23.08.2019 18:00:00 26,3 11,0 6 3 16 9 ESE 1023,6 60 0,0
23.08.2019 17:00:00 26,2 10,7 7 4 14 8 SSE 1024,0 60 0,0
23.08.2019 16:00:00 26,1 9,6 6 4 16 9 SSE 1024,5 60 0,0
23.08.2019 15:00:00 25,5 10,4 9 5 15 8 SE 1024,9 60 0,0
23.08.2019 14:00:00 24,7 10,8 7 4 16 9 SSE 1025,4 60 0,0
23.08.2019 13:00:00 23,5 9,2 6 3 13 7 S 1025,9 60 0,0
23.08.2019 12:00:00 21,8 11,9 4 2 9 5 SW 1026,5 60 0,0
23.08.2019 11:00:00 19,6 13,7 4 2 8 4 S 1026,6 60 0,0
23.08.2019 10:00:00 16,8 13,7 4 2 5 3 NW 1026,5 60 0,0
23.08.2019 09:00:00 13,5 12,9 4 2 5 3 WSW 1026,8 60 0,0
23.08.2019 08:00:00 10,4 10,3 0 0 7 4 N 1026,6 47 0,0
23.08.2019 07:00:00 7,8 7,8 5 3 8 4 SE 1026,5 0 0,0
23.08.2019 06:00:00 7,4 7,4 4 2 6 3 SSW 1026,5 0 0,0
23.08.2019 05:00:00 7,7 7,7 4 2 4 2 SSE 1026,7 0 0,0
23.08.2019 04:00:00 8,0 8,0 4 2 6 3 NW 1026,5 0 0,0
23.08.2019 03:00:00 8,4 8,4 0 0 5 3 N 1026,8 0 0,0
23.08.2019 02:00:00 9,0 8,8 4 2 5 3 SW 1027,0 0 0,0
23.08.2019 01:00:00 9,8 9,3 4 2 6 3 SSE 1026,8 0 0,0
23.08.2019 00:00:00 10,7 9,8 4 2 6 3 SW 1026,8 0 0,0
22.08.2019 23:00:00 12,2 10,2 5 3 9 5 SW 1026,6 0 0,0
22.08.2019 22:00:00 16,0 9,4 7 4 10 5 SW 1026,3 0 0,0
22.08.2019 21:00:00 18,4 9,2 6 3 16 9 W 1025,9 48 0,0
22.08.2019 20:00:00 21,4 9,5 11 6 21 11 W 1025,6 60 0,0
22.08.2019 19:00:00 22,3 12,6 9 5 26 14 NNW 1025,4 60 0,0
22.08.2019 18:00:00 24,0 9,2 14 7 26 14 W 1025,3 60 0,0
22.08.2019 17:00:00 24,3 9,4 11 6 23 12 WSW 1025,4 60 0,0
22.08.2019 16:00:00 24,0 8,8 10 5 25 13 WSW 1025,4 60 0,0
22.08.2019 15:00:00 23,6 10,1 11 6 24 13 W 1025,9 60 0,0
22.08.2019 14:00:00 22,3 8,9 11 6 23 12 WSW 1026,4 60 0,0
22.08.2019 13:00:00 21,7 10,5 10 5 22 12 WSW 1026,7 60 0,0
22.08.2019 12:00:00 20,4 11,3 6 3 18 10 W 1026,9 60 0,0
22.08.2019 11:00:00 18,9 11,7 11 6 17 9 WNW 1026,6 60 0,0
22.08.2019 10:00:00 17,1 14,5 7 4 13 7 W 1026,6 60 0,0
22.08.2019 09:00:00 13,6 13,4 4 2 7 4 W 1026,7 60 0,0
22.08.2019 08:00:00 11,0 10,8 4 2 7 4 S 1026,5 14 0,0
22.08.2019 07:00:00 8,2 8,2 5 3 6 4 WSW 1025,9 0 0,0
22.08.2019 06:00:00 8,8 8,8 4 2 15 8 WNW 1025,7 0 0,0
22.08.2019 05:00:00 8,4 8,4 4 2 3 2 SW 1025,5 0 0,0
22.08.2019 04:00:00 9,4 9,4 0 0 5 3 N 1026,0 0 0,0
22.08.2019 03:00:00 9,0 9,0 0 0 4 2 N 1026,2 0 0,0
22.08.2019 02:00:00 9,7 9,7 4 2 5 3 WNW 1026,5 0 0,0
22.08.2019 01:00:00 10,7 10,5 4 2 6 4 WNW 1026,7 0 0,0
22.08.2019 00:00:00 11,6 11,2 0 0 6 3 N 1026,9 0 0,0
21.08.2019 23:00:00 12,9 11,9 4 2 9 5 NE 1026,7 0 0,0
21.08.2019 22:00:00 15,7 12,2 6 3 11 6 N 1026,6 0 0,0
21.08.2019 21:00:00 18,1 11,8 5 3 9 5 SE 1026,4 33 0,0
21.08.2019 20:00:00 21,2 9,9 4 2 10 5 ESE 1026,1 60 0,0
21.08.2019 19:00:00 22,2 9,7 5 3 14 7 E 1026,3 59 0,0
21.08.2019 18:00:00 22,9 10,2 4 2 24 13 N 1026,7 60 0,0
21.08.2019 17:00:00 22,2 10,7 6 4 15 8 N 1026,9 60 0,0
21.08.2019 16:00:00 22,1 10,1 6 4 14 8 NNW 1027,5 60 0,0
21.08.2019 15:00:00 21,9 10,0 9 5 23 12 SSE 1027,8 60 0,0
21.08.2019 14:00:00 21,0 9,8 4 2 14 7 ESE 1028,2 60 0,0
21.08.2019 13:00:00 20,7 9,4 6 3 16 9 SSW 1028,6 60 0,0
21.08.2019 12:00:00 19,4 11,5 6 3 14 8 S 1029,2 57 0,0
21.08.2019 11:00:00 18,0 13,9 6 3 13 7 SSW 1029,1 60 0,0
21.08.2019 10:00:00 14,9 13,2 8 5 12 7 S 1029,3 60 0,0
21.08.2019 09:00:00 12,5 11,7 7 4 10 6 S 1029,2 60 0,0
21.08.2019 08:00:00 10,5 10,5 4 2 8 5 S 1028,8 33 0,0
21.08.2019 07:00:00 9,1 9,1 5 3 8 4 S 1028,5 0 0,0
21.08.2019 06:00:00 9,1 9,1 6 3 10 6 S 1028,1 0 0,0
21.08.2019 05:00:00 9,7 9,7 5 3 9 5 SSW 1028,1 0 0,0
21.08.2019 04:00:00 10,0 9,9 5 3 8 5 SSW 1028,1 0 0,0
21.08.2019 03:00:00 9,3 9,3 6 3 7 4 S 1028,0 0 0,0
21.08.2019 02:00:00 10,6 10,1 7 4 10 5 SSW 1027,9 0 0,0
21.08.2019 01:00:00 10,9 10,2 5 3 8 5 S 1027,9 0 0,0
21.08.2019 00:00:00 11,5 10,5 5 3 9 5 SSW 1027,8 0 0,0
20.08.2019 23:00:00 13,1 10,5 5 3 10 6 WSW 1027,1 0 0,0
20.08.2019 22:00:00 14,0 10,4 8 5 12 7 W 1026,9 0 0,0
20.08.2019 21:00:00 16,3 10,0 7 4 19 11 W 1026,2 35 0,0
20.08.2019 20:00:00 18,7 9,0 11 6 25 14 W 1025,7 54 0,0
20.08.2019 19:00:00 20,3 7,8 17 9 29 16 W 1025,0 59 0,0
20.08.2019 18:00:00 21,1 9,4 17 9 32 17 W 1024,8 57 0,0
20.08.2019 17:00:00 20,8 9,9 17 9 34 19 W 1024,3 49 0,0
20.08.2019 16:00:00 21,0 11,1 15 8 35 19 WNW 1024,0 39 0,0
20.08.2019 15:00:00 20,0 10,2 15 8 28 15 W 1023,7 39 0,0
20.08.2019 14:00:00 20,4 12,3 14 8 30 16 WSW 1023,6 45 0,0
20.08.2019 13:00:00 20,0 11,6 14 8 29 16 W 1023,6 32 0,0
20.08.2019 12:00:00 19,3 13,2 13 7 24 13 W 1023,1 49 0,0
20.08.2019 11:00:00 16,9 13,5 11 6 20 11 WSW 1023,1 8 0,0
20.08.2019 10:00:00 15,9 13,6 13 7 24 13 SW 1022,9 45 0,0
20.08.2019 09:00:00 14,2 13,0 13 7 20 11 SSW 1022,6 60 0,0
20.08.2019 08:00:00 12,1 11,9 7 4 11 6 SW 1022,3 30 0,0
20.08.2019 07:00:00 11,0 10,8 7 4 12 6 SSW 1021,6 0 0,0
20.08.2019 06:00:00 11,4 11,0 9 5 16 9 SSW 1021,1 0 0,0
20.08.2019 05:00:00 11,9 11,3 11 6 18 10 SSW 1021,1 0 0,0
20.08.2019 04:00:00 12,0 11,3 13 7 18 10 SSW 1021,1 0 0,0
20.08.2019 03:00:00 12,3 11,4 10 6 18 10 SW 1020,8 0 0,0
20.08.2019 02:00:00 12,5 11,4 11 6 19 11 SW 1020,8 0 0,0
20.08.2019 01:00:00 12,9 11,4 13 7 19 10 SW 1020,7 0 0,0
20.08.2019 00:00:00 13,6 11,2 13 7 21 11 SW 1020,1 0 0,0
19.08.2019 23:00:00 14,1 10,8 13 7 20 11 SW 1019,8 0 0,0
19.08.2019 22:00:00 14,8 10,3 9 5 19 11 WSW 1019,7 0 0,0
19.08.2019 21:00:00 16,6 10,0 13 7 29 16 SW 1018,9 37 0,0
19.08.2019 20:00:00 18,2 9,7 22 12 37 20 WSW 1018,7 49 0,0
19.08.2019 19:00:00 19,5 10,3 21 12 36 19 WSW 1018,2 55 0,0
19.08.2019 18:00:00 20,6 10,3 20 11 41 22 WSW 1017,8 48 0,0
19.08.2019 17:00:00 20,3 10,6 21 11 40 22 WSW 1017,6 54 0,0
19.08.2019 16:00:00 20,2 13,0 19 10 41 22 WSW 1017,6 55 0,0
19.08.2019 15:00:00 16,9 12,7 16 8 47 25 WSW 1017,5 6 1,6
19.08.2019 14:00:00 20,3 12,8 18 10 37 20 SW 1016,8 43 0,0
19.08.2019 13:00:00 20,1 13,1 19 10 36 19 SW 1016,4 45 0,0
19.08.2019 12:00:00 17,5 12,8 20 11 39 21 SW 1016,4 20 0,0
19.08.2019 11:00:00 18,4 13,3 22 12 42 23 WSW 1015,7 60 0,0
19.08.2019 10:00:00 16,8 13,7 19 10 30 16 SW 1015,3 60 0,0
19.08.2019 09:00:00 14,7 13,1 15 8 26 14 SSW 1015,1 60 0,0
19.08.2019 08:00:00 12,9 12,1 14 8 19 11 SSW 1014,9 37 0,0
19.08.2019 07:00:00 12,1 11,7 12 6 17 9 SSW 1014,4 0 0,0
19.08.2019 06:00:00 12,2 11,7 10 6 19 10 SSW 1014,0 0 0,0
19.08.2019 05:00:00 12,7 12,0 12 6 20 11 SW 1013,5 0 0,0
19.08.2019 04:00:00 12,3 11,9 11 6 16 8 SW 1013,2 0 0,0
19.08.2019 03:00:00 12,5 11,7 9 5 19 10 SSW 1013,2 0 0,0
19.08.2019 02:00:00 12,7 11,8 11 6 16 9 SSW 1013,0 0 0,0
19.08.2019 01:00:00 12,9 11,5 9 5 18 10 SSW 1012,6 0 0,0
19.08.2019 00:00:00 13,2 11,3 11 6 17 9 SW 1011,7 0 0,0
18.08.2019 23:00:00 13,7 10,6 10 5 19 10 SSW 1011,4 0 0,0
18.08.2019 22:00:00 15,1 9,9 10 5 26 14 SW 1010,8 0 0,0
18.08.2019 21:00:00 16,8 9,4 14 8 36 20 WSW 1010,2 53 0,0
18.08.2019 20:00:00 18,2 11,0 22 12 42 23 WSW 1010,0 52 0,0
18.08.2019 19:00:00 19,6 11,2 22 12 42 23 W 1009,3 56 0,0
18.08.2019 18:00:00 20,4 10,8 24 13 42 23 WSW 1008,8 60 0,0
18.08.2019 17:00:00 21,2 13,2 23 13 42 23 WSW 1008,1 55 0,0
18.08.2019 16:00:00 21,3 14,5 19 10 39 21 WSW 1007,6 50 0,0
18.08.2019 15:00:00 20,2 14,7 21 11 32 18 WSW 1007,4 26 0,0
18.08.2019 14:00:00 18,2 15,7 14 8 21 12 WSW 1006,8 2 0,0
18.08.2019 13:00:00 17,9 15,7 9 5 17 9 SW 1006,0 1 0,0
18.08.2019 12:00:00 17,0 15,4 9 5 15 8 W 1005,4 10 0,0
18.08.2019 11:00:00 16,0 15,4 5 3 8 5 SW 1004,6 6 0,0
18.08.2019 10:00:00 14,8 14,6 6 3 12 7 S 1004,6 0 0,9
18.08.2019 09:00:00 15,0 14,9 7 4 11 6 SSE 1004,5 0 0,8
18.08.2019 08:00:00 14,9 14,9 7 4 11 6 S 1004,2 0 1,1
18.08.2019 07:00:00 14,9 14,8 5 3 16 9 S 1005,5 0 2,0
18.08.2019 06:00:00 15,3 15,2 9 5 15 8 SSW 1006,3 0 1,8
18.08.2019 05:00:00 15,6 15,0 10 5 18 10 S 1006,3 0 0,0
18.08.2019 04:00:00 15,5 15,1 9 5 11 6 S 1006,9 0 0,2
18.08.2019 03:00:00 15,6 15,1 7 4 11 6 SSW 1007,7 0 0,2
18.08.2019 02:00:00 15,8 14,9 7 4 16 9 SSW 1007,7 0 0,0
18.08.2019 01:00:00 16,0 14,7 11 6 16 9 SW 1007,9 0 0,0
18.08.2019 00:00:00 16,2 14,5 11 6 18 10 SW 1008,0 0 0,0

tt = Température de l'air
td = dewpoint
ff = Vitesse du vent
fx = gusts
dd = Direction du vent
ppp = reduced air pressure
sd = Ensoleillement
rr = Quantités de précipitations

stations d'obs. à proximité